Time;durP1;ratioP1;P1;durP2;ratioP2;P2;SDS_P1;SDS_P2;PMS_P1;PMS_P2;Temp;Humidity;BMP_temperature;BMP_pressure;BME280_temperature;BME280_humidity;BME280_pressure;Samples;Min_cycle;Max_cycle;Signal;HPM_P1;HPM_P2
2023/05/01 00:02:39;;;;;;;9.00;4.05;;;23.10;36.70;;;;;;7640358;22;80107;-66
2023/05/01 00:05:39;;;;;;;10.23;4.47;;;23.00;36.60;;;;;;7640381;22;80685;-65
2023/05/01 00:08:40;;;;;;;8.88;4.15;;;23.10;36.60;;;;;;7640386;22;80834;-62
2023/05/01 00:11:41;;;;;;;6.68;3.50;;;23.00;36.60;;;;;;7641405;22;80418;-60
2023/05/01 00:14:41;;;;;;;7.35;3.63;;;23.00;36.60;;;;;;7613135;22;82259;-61
2023/05/01 00:17:41;;;;;;;7.10;3.83;;;23.00;36.60;;;;;;7639225;22;80968;-62
2023/05/01 00:20:42;;;;;;;7.97;4.65;;;23.00;36.60;;;;;;7639127;22;80159;-62
2023/05/01 00:23:43;;;;;;;8.00;4.35;;;23.00;36.50;;;;;;7639579;22;80426;-62
2023/05/01 00:26:43;;;;;;;9.52;4.32;;;23.00;37.20;;;;;;7641433;22;80458;-61
2023/05/01 00:29:44;;;;;;;8.57;4.00;;;23.00;36.60;;;;;;7612771;22;83101;-62
2023/05/01 00:32:45;;;;;;;6.13;3.55;;;23.00;36.70;;;;;;7611833;22;83683;-61
2023/05/01 00:35:45;;;;;;;7.00;3.97;;;23.00;36.70;;;;;;7612493;22;82978;-59
2023/05/01 00:38:46;;;;;;;7.05;4.20;;;23.00;36.80;;;;;;7640118;22;81580;-60
2023/05/01 00:41:46;;;;;;;7.80;4.13;;;23.00;36.90;;;;;;7638142;22;79974;-60
2023/05/01 00:44:47;;;;;;;5.65;3.05;;;23.00;36.80;;;;;;7612175;22;81429;-60
2023/05/01 00:47:47;;;;;;;5.47;3.72;;;23.00;37.50;;;;;;7639378;22;80579;-64
2023/05/01 00:50:48;;;;;;;5.57;3.80;;;23.00;36.80;;;;;;7612167;22;82105;-64
2023/05/01 00:53:48;;;;;;;6.50;4.32;;;23.00;36.80;;;;;;7639370;22;80456;-65
2023/05/01 00:56:49;;;;;;;9.93;4.55;;;23.00;36.80;;;;;;7639364;22;80377;-66
2023/05/01 00:59:50;;;;;;;7.05;3.95;;;23.00;36.80;;;;;;7612865;22;81650;-64
2023/05/01 01:02:51;;;;;;;7.40;3.63;;;22.90;36.70;;;;;;7639842;22;80247;-65
2023/05/01 01:05:51;;;;;;;5.22;3.30;;;22.90;36.70;;;;;;7639861;22;81055;-64
2023/05/01 01:08:52;;;;;;;7.20;4.07;;;22.90;36.70;;;;;;7636350;22;81667;-65
2023/05/01 01:11:52;;;;;;;7.90;3.90;;;22.90;36.70;;;;;;7638284;22;80384;-64
2023/05/01 01:14:53;;;;;;;6.68;3.58;;;22.90;36.60;;;;;;7637638;22;81788;-66
2023/05/01 01:17:53;;;;;;;5.68;3.10;;;22.90;36.70;;;;;;7639049;22;81081;-66
2023/05/01 01:20:54;;;;;;;8.45;4.07;;;22.90;36.70;;;;;;7639353;22;80467;-65
2023/05/01 01:23:54;;;;;;;6.13;3.40;;;22.90;36.70;;;;;;7637523;22;80359;-66
2023/05/01 01:26:55;;;;;;;7.00;4.38;;;22.80;36.70;;;;;;7638686;22;81168;-66
2023/05/01 01:29:56;;;;;;;7.25;4.00;;;22.90;36.70;;;;;;7610522;22;83464;-65
2023/05/01 01:32:57;;;;;;;5.20;3.42;;;22.80;36.70;;;;;;7611695;22;81579;-65
2023/05/01 01:35:57;;;;;;;8.43;4.25;;;22.80;36.70;;;;;;7611702;22;81726;-66
2023/05/01 01:38:58;;;;;;;6.13;3.60;;;22.80;36.70;;;;;;7637158;22;87641;-65
2023/05/01 01:42:00;;;;;;;5.93;3.30;;;22.80;36.70;;;;;;7612060;22;82830;-66
2023/05/01 01:45:01;;;;;;;7.43;3.67;;;22.80;36.80;;;;;;7611326;22;82130;-65
2023/05/01 01:48:03;;;;;;;5.85;3.45;;;22.80;36.80;;;;;;7612787;22;83034;-65
2023/05/01 01:51:03;;;;;;;5.70;3.70;;;22.80;36.80;;;;;;7613674;22;82199;-65
2023/05/01 01:54:04;;;;;;;6.43;3.75;;;22.80;36.80;;;;;;7640716;22;80957;-65
2023/05/01 01:57:05;;;;;;;7.22;3.63;;;22.80;36.80;;;;;;7612644;22;83094;-64
2023/05/01 02:00:07;;;;;;;9.07;4.60;;;22.80;36.80;;;;;;7612357;22;83198;-66
2023/05/01 02:03:13;;;;;;;6.75;3.58;;;22.80;36.70;;;;;;7640251;22;80410;-67
2023/05/01 02:06:14;;;;;;;7.15;3.80;;;22.80;36.70;;;;;;7589142;22;82169;-67
2023/05/01 02:09:15;;;;;;;5.80;3.70;;;22.70;36.60;;;;;;7612565;22;82708;-65
2023/05/01 02:12:16;;;;;;;6.25;4.03;;;22.70;36.60;;;;;;7640291;22;80636;-65
2023/05/01 02:15:17;;;;;;;9.07;4.28;;;22.80;36.70;;;;;;7640455;22;80793;-65
2023/05/01 02:18:18;;;;;;;8.35;3.80;;;22.70;36.60;;;;;;7613560;22;81711;-65
2023/05/01 02:21:19;;;;;;;7.03;3.72;;;22.70;36.60;;;;;;7640191;22;81141;-66
2023/05/01 02:24:21;;;;;;;7.10;3.75;;;22.70;36.60;;;;;;7613067;22;82129;-65
2023/05/01 02:27:21;;;;;;;6.32;3.42;;;22.70;36.60;;;;;;7612749;22;83366;-65
2023/05/01 02:30:22;;;;;;;5.72;3.65;;;22.70;36.60;;;;;;7639677;22;80538;-65
2023/05/01 02:33:23;;;;;;;8.73;3.78;;;22.70;36.50;;;;;;7640505;22;80428;-65
2023/05/01 02:36:23;;;;;;;8.88;4.10;;;22.70;36.50;;;;;;7641231;22;80184;-61
2023/05/01 02:39:24;;;;;;;8.88;3.47;;;22.70;36.40;;;;;;7612815;22;83861;-61
2023/05/01 02:42:25;;;;;;;10.02;4.13;;;22.70;36.30;;;;;;7639222;22;81497;-61
2023/05/01 02:45:25;;;;;;;7.90;4.10;;;22.70;36.30;;;;;;7639744;22;80800;-62
2023/05/01 02:48:26;;;;;;;6.75;3.75;;;22.70;36.30;;;;;;7612467;22;83215;-62
2023/05/01 02:51:27;;;;;;;6.68;3.80;;;22.70;36.30;;;;;;7612726;22;83091;-62
2023/05/01 02:54:28;;;;;;;7.43;3.50;;;22.70;36.30;;;;;;7612979;22;80362;-61
2023/05/01 02:57:29;;;;;;;6.30;3.60;;;22.70;36.30;;;;;;7612852;22;83271;-60
2023/05/01 03:00:29;;;;;;;6.18;3.28;;;22.70;36.30;;;;;;7613683;22;81973;-61
2023/05/01 03:03:30;;;;;;;6.60;3.60;;;22.70;36.30;;;;;;7640095;22;81217;-61
2023/05/01 03:06:30;;;;;;;7.10;4.18;;;22.70;36.40;;;;;;7612160;22;83385;-60
2023/05/01 03:09:31;;;;;;;6.70;3.53;;;22.70;36.50;;;;;;7612771;22;83430;-58
2023/05/01 03:12:31;;;;;;;6.88;3.47;;;22.70;36.50;;;;;;7639295;22;80341;-64
2023/05/01 03:15:32;;;;;;;7.60;3.63;;;22.70;36.50;;;;;;7611342;22;81908;-65
2023/05/01 03:18:32;;;;;;;6.97;3.58;;;22.70;36.50;;;;;;7640859;22;80783;-66
2023/05/01 03:21:33;;;;;;;4.40;3.30;;;22.70;36.40;;;;;;7638496;22;87898;-64
2023/05/01 03:24:33;;;;;;;6.68;3.67;;;22.60;36.30;;;;;;7612653;22;83335;-66
2023/05/01 03:27:34;;;;;;;6.90;3.63;;;22.60;36.30;;;;;;7612534;22;83255;-66
2023/05/01 03:30:35;;;;;;;6.55;3.47;;;22.70;36.40;;;;;;7639457;22;80728;-65
2023/05/01 03:33:36;;;;;;;7.15;3.45;;;22.70;36.40;;;;;;7639981;22;80282;-62
2023/05/01 03:36:37;;;;;;;8.00;4.00;;;22.70;36.30;;;;;;7611883;22;82752;-65
2023/05/01 03:39:38;;;;;;;7.18;4.00;;;22.60;36.20;;;;;;7613233;22;81879;-64
2023/05/01 03:42:57;;;;;;;7.35;4.18;;;22.60;36.20;;;;;;7640249;22;80998;-65
2023/05/01 03:45:57;;;;;;;11.73;4.20;;;22.60;36.20;;;;;;7639490;22;80410;-63
2023/05/01 03:48:59;;;;;;;7.53;3.88;;;22.60;36.20;;;;;;7613544;22;82900;-64
2023/05/01 03:52:00;;;;;;;8.10;3.90;;;22.60;36.20;;;;;;7612616;22;82629;-64
2023/05/01 03:55:01;;;;;;;8.27;4.22;;;22.60;36.20;;;;;;7612866;22;83465;-64
2023/05/01 03:58:13;;;;;;;6.57;3.90;;;22.60;36.20;;;;;;7612964;22;81904;-66
2023/05/01 04:01:14;;;;;;;6.47;3.85;;;22.60;36.20;;;;;;7611791;22;82759;-65
2023/05/01 04:04:17;;;;;;;11.30;4.75;;;22.60;36.20;;;;;;7612970;22;82743;-66
2023/05/01 04:07:22;;;;;;;6.37;3.83;;;22.60;36.30;;;;;;7610710;22;80070;-65
2023/05/01 04:10:24;;;;;;;7.20;3.80;;;22.60;36.30;;;;;;7611393;22;81642;-73
2023/05/01 04:13:30;;;;;;;9.25;4.43;;;22.60;36.30;;;;;;7613357;22;83286;-73
2023/05/01 04:16:31;;;;;;;7.55;3.60;;;22.60;36.30;;;;;;7612446;22;83164;-72
2023/05/01 04:19:33;;;;;;;6.75;4.25;;;22.60;36.20;;;;;;7613655;22;80554;-74
2023/05/01 04:22:34;;;;;;;6.03;3.65;;;22.50;36.20;;;;;;7612253;22;83262;-74
2023/05/01 04:25:35;;;;;;;8.98;4.15;;;22.60;36.20;;;;;;7613764;22;82442;-75
2023/05/01 04:28:41;;;;;;;7.65;4.88;;;22.60;36.30;;;;;;7612826;22;83238;-77
2023/05/01 04:31:44;;;;;;;5.43;3.70;;;22.60;36.20;;;;;;7613145;22;80411;-75
2023/05/01 04:34:44;;;;;;;7.68;4.20;;;22.60;36.20;;;;;;7614758;22;83135;-76
2023/05/01 04:37:45;;;;;;;7.40;4.28;;;22.60;36.30;;;;;;7612048;22;82188;-72
2023/05/01 04:40:45;;;;;;;9.48;4.80;;;22.50;36.30;;;;;;7613201;22;83280;-72
2023/05/01 04:43:46;;;;;;;6.65;4.32;;;22.60;36.40;;;;;;7612172;22;82199;-70
2023/05/01 04:46:50;;;;;;;6.72;4.32;;;22.60;36.40;;;;;;7611878;22;82589;-59
2023/05/01 04:49:51;;;;;;;9.23;4.97;;;22.60;36.50;;;;;;7612078;22;80320;-60
2023/05/01 04:52:52;;;;;;;10.05;4.82;;;22.60;36.50;;;;;;7638359;22;80178;-59
2023/05/01 04:55:52;;;;;;;9.52;4.47;;;22.60;36.50;;;;;;7612188;22;82485;-59
2023/05/01 04:58:53;;;;;;;9.00;4.70;;;22.60;36.60;;;;;;7612313;22;82964;-60
2023/05/01 05:01:56;;;;;;;9.63;5.30;;;22.60;36.60;;;;;;7612692;22;82574;-60
2023/05/01 05:04:56;;;;;;;9.07;5.00;;;22.60;36.70;;;;;;7638407;22;80372;-65
2023/05/01 05:07:57;;;;;;;10.30;5.65;;;22.60;36.70;;;;;;7611595;22;83615;-65
2023/05/01 05:11:03;;;;;;;8.87;5.47;;;22.60;36.70;;;;;;7611468;22;83587;-65
2023/05/01 05:14:24;;;;;;;11.23;5.40;;;22.50;36.70;;;;;;7590439;22;83475;-65
2023/05/01 05:17:25;;;;;;;10.60;5.35;;;22.60;37.40;;;;;;7611663;22;83279;-63
2023/05/01 05:20:25;;;;;;;8.80;5.22;;;22.50;36.70;;;;;;7639265;22;80172;-64
2023/05/01 05:23:26;;;;;;;9.13;5.05;;;22.60;36.70;;;;;;7613828;22;82040;-70
2023/05/01 05:26:27;;;;;;;9.45;5.68;;;22.60;36.80;;;;;;7614092;22;83479;-74
2023/05/01 05:29:31;;;;;;;9.70;5.68;;;22.60;36.70;;;;;;7611832;22;83487;-74
2023/05/01 05:32:32;;;;;;;12.38;5.88;;;22.60;36.80;;;;;;7613294;22;82727;-76
2023/05/01 05:35:33;;;;;;;11.30;5.40;;;22.60;36.80;;;;;;7613968;22;82914;-75
2023/05/01 05:38:33;;;;;;;9.15;5.07;;;22.60;36.90;;;;;;7615562;22;83374;-79
2023/05/01 05:41:34;;;;;;;12.70;5.30;;;22.70;37.00;;;;;;7613093;22;81897;-72
2023/05/01 05:44:37;;;;;;;11.77;5.90;;;22.70;37.00;;;;;;7613269;22;83248;-69
2023/05/01 05:47:38;;;;;;;10.13;5.72;;;22.70;37.10;;;;;;7613872;22;81712;-72
2023/05/01 05:50:39;;;;;;;12.02;5.72;;;22.70;37.10;;;;;;7640668;22;81129;-73
2023/05/01 05:53:40;;;;;;;9.52;5.05;;;22.70;37.10;;;;;;7614056;22;83210;-73
2023/05/01 05:56:41;;;;;;;10.10;5.85;;;22.70;37.10;;;;;;7614533;22;82924;-67
2023/05/01 05:59:43;;;;;;;8.85;4.95;;;22.70;37.10;;;;;;7612381;22;81604;-61
2023/05/01 06:02:45;;;;;;;10.65;5.60;;;22.70;37.10;;;;;;7614437;22;83387;-60
2023/05/01 06:05:46;;;;;;;9.38;5.30;;;22.70;37.10;;;;;;7613308;22;82149;-62
2023/05/01 06:08:46;;;;;;;9.00;5.45;;;22.80;37.10;;;;;;7640910;22;80302;-63
2023/05/01 06:11:48;;;;;;;12.05;5.50;;;22.70;37.10;;;;;;7614104;22;83473;-63
2023/05/01 06:14:49;;;;;;;12.10;5.60;;;22.80;37.60;;;;;;7612813;22;83303;-63
2023/05/01 06:17:50;;;;;;;8.48;4.85;;;22.80;37.90;;;;;;7614278;22;81929;-66
2023/05/01 06:20:51;;;;;;;8.35;5.57;;;22.80;38.20;;;;;;7640767;22;80229;-64
2023/05/01 06:23:51;;;;;;;15.10;6.32;;;22.80;38.20;;;;;;7639957;22;80405;-66
2023/05/01 06:27:06;;;;;;;39.53;26.25;;;22.80;38.30;;;;;;7612012;22;82778;-66
2023/05/01 06:30:08;;;;;;;141.65;98.20;;;22.90;38.50;;;;;;7606799;22;84034;-66
2023/05/01 06:33:10;;;;;;;181.38;137.18;;;22.90;38.80;;;;;;7600117;22;85420;-63
2023/05/01 06:36:12;;;;;;;133.70;96.38;;;22.90;38.80;;;;;;7583473;22;86151;-63
2023/05/01 06:39:13;;;;;;;240.45;194.45;;;22.90;38.60;;;;;;7609855;22;86643;-64
2023/05/01 06:42:15;;;;;;;196.02;153.60;;;22.90;38.70;;;;;;7634816;22;85877;-63
2023/05/01 06:45:16;;;;;;;165.77;129.50;;;22.90;38.30;;;;;;7608071;22;86772;-64
2023/05/01 06:48:16;;;;;;;154.82;119.30;;;23.00;38.20;;;;;;7602562;22;88031;-64
2023/05/01 06:51:17;;;;;;;135.30;104.05;;;23.00;38.20;;;;;;7607306;22;88054;-63
2023/05/01 06:54:18;;;;;;;119.85;94.28;;;23.00;38.20;;;;;;7607020;22;86403;-69
2023/05/01 06:57:19;;;;;;;102.80;79.05;;;23.00;38.10;;;;;;7639360;22;85056;-65
2023/05/01 07:00:20;;;;;;;94.55;70.55;;;23.00;38.10;;;;;;7636293;22;83150;-67
2023/05/01 07:03:20;;;;;;;92.53;69.50;;;23.00;38.00;;;;;;7631603;22;84588;-69
2023/05/01 07:06:21;;;;;;;79.13;59.90;;;23.10;38.10;;;;;;7632742;22;83640;-69
2023/05/01 07:09:21;;;;;;;67.07;52.63;;;23.10;37.90;;;;;;7637548;22;82936;-69
2023/05/01 07:12:22;;;;;;;62.55;47.75;;;23.10;37.90;;;;;;7637962;22;82997;-71
2023/05/01 07:15:22;;;;;;;57.17;43.38;;;23.10;37.70;;;;;;7638552;22;83575;-68
2023/05/01 07:18:23;;;;;;;49.22;38.40;;;23.10;37.60;;;;;;7634841;22;83215;-69
2023/05/01 07:21:24;;;;;;;49.28;35.60;;;23.10;37.50;;;;;;7635897;22;82954;-69
2023/05/01 07:24:24;;;;;;;39.40;30.10;;;23.10;37.30;;;;;;7637004;22;83499;-69
2023/05/01 07:27:25;;;;;;;38.40;28.20;;;23.10;37.20;;;;;;7637466;22;83296;-72
2023/05/01 07:30:25;;;;;;;34.53;24.15;;;23.20;37.30;;;;;;7632577;22;84481;-68
2023/05/01 07:33:26;;;;;;;31.35;21.80;;;23.10;37.10;;;;;;7636624;22;83513;-69
2023/05/01 07:36:27;;;;;;;27.02;21.25;;;23.10;37.00;;;;;;7634439;22;83545;-70
2023/05/01 07:39:27;;;;;;;22.33;17.50;;;23.20;37.00;;;;;;7636971;22;83215;-67
2023/05/01 07:42:28;;;;;;;22.75;16.48;;;23.20;37.00;;;;;;7634100;22;88865;-68
2023/05/01 07:45:28;;;;;;;21.38;14.95;;;23.20;37.00;;;;;;7632969;22;83730;-72
2023/05/01 07:48:30;;;;;;;16.80;12.63;;;23.20;36.90;;;;;;7635187;22;83213;-63
2023/05/01 07:51:31;;;;;;;20.10;11.43;;;23.30;37.00;;;;;;7635754;22;82806;-63
2023/05/01 07:54:32;;;;;;;18.30;11.20;;;23.30;36.80;;;;;;7636460;22;83142;-63
2023/05/01 07:57:32;;;;;;;13.88;9.32;;;23.30;36.90;;;;;;7637390;22;82957;-62
2023/05/01 08:00:33;;;;;;;10.20;7.53;;;23.30;36.80;;;;;;7637256;22;82882;-64
2023/05/01 08:03:33;;;;;;;14.05;7.60;;;23.30;36.70;;;;;;7641705;22;80864;-60
2023/05/01 08:06:34;;;;;;;10.02;6.78;;;23.30;36.70;;;;;;7640501;22;79999;-63
2023/05/01 08:09:34;;;;;;;8.73;5.75;;;23.30;36.50;;;;;;7642100;22;80609;-63
2023/05/01 08:12:35;;;;;;;9.05;5.57;;;23.30;36.50;;;;;;7641513;22;80364;-65
2023/05/01 08:15:37;;;;;;;7.32;5.47;;;23.40;36.50;;;;;;7635716;22;82066;-63
2023/05/01 08:18:38;;;;;;;9.30;5.22;;;23.40;36.50;;;;;;7642533;22;80854;-64
2023/05/01 08:21:38;;;;;;;7.47;4.70;;;23.40;36.30;;;;;;7642519;22;80576;-63
2023/05/01 08:24:40;;;;;;;5.35;4.07;;;23.50;36.50;;;;;;7640348;22;80611;-64
2023/05/01 08:27:41;;;;;;;5.70;3.60;;;23.40;36.40;;;;;;7642794;22;80497;-60
2023/05/01 08:30:43;;;;;;;5.03;3.70;;;23.50;36.40;;;;;;7638145;22;81288;-61
2023/05/01 08:33:43;;;;;;;5.47;3.60;;;23.50;36.30;;;;;;7642131;22;80924;-60
2023/05/01 08:36:44;;;;;;;5.90;3.58;;;23.50;36.40;;;;;;7642560;22;80754;-60
2023/05/01 08:39:44;;;;;;;5.97;3.33;;;23.40;35.60;;;;;;7642430;22;80216;-60
2023/05/01 08:42:45;;;;;;;5.45;3.40;;;23.30;34.90;;;;;;7643021;22;80737;-61
2023/05/01 08:45:45;;;;;;;6.38;3.60;;;23.00;34.40;;;;;;7638194;22;80904;-64
2023/05/01 08:48:46;;;;;;;7.13;3.25;;;23.10;34.80;;;;;;7642036;22;80427;-67
2023/05/01 08:51:48;;;;;;;7.88;3.20;;;23.10;34.80;;;;;;7643012;22;80987;-65
2023/05/01 08:54:49;;;;;;;6.25;3.10;;;23.20;35.00;;;;;;7640962;22;80494;-66
2023/05/01 08:57:50;;;;;;;7.20;3.22;;;23.20;35.20;;;;;;7638741;22;80655;-65
2023/05/01 09:00:50;;;;;;;7.55;2.75;;;23.20;35.10;;;;;;7640121;22;80867;-67
2023/05/01 09:03:51;;;;;;;8.60;2.90;;;23.20;34.90;;;;;;7642464;22;80375;-67
2023/05/01 09:06:51;;;;;;;6.47;2.60;;;23.10;34.60;;;;;;7642855;22;80341;-69
2023/05/01 09:09:52;;;;;;;5.38;3.00;;;23.00;34.50;;;;;;7641702;22;80289;-66
2023/05/01 09:12:52;;;;;;;5.32;2.72;;;23.00;34.80;;;;;;7639143;22;81378;-68
2023/05/01 09:15:53;;;;;;;4.32;2.80;;;23.10;34.80;;;;;;7641222;22;81369;-64
2023/05/01 09:18:53;;;;;;;6.68;3.20;;;23.10;34.70;;;;;;7642778;22;80349;-66
2023/05/01 09:21:54;;;;;;;6.95;3.25;;;23.10;34.70;;;;;;7642595;22;80346;-65
2023/05/01 09:24:55;;;;;;;5.47;2.90;;;23.10;34.50;;;;;;7642599;22;80730;-66
2023/05/01 09:27:56;;;;;;;5.13;2.80;;;23.10;34.50;;;;;;7638460;22;81298;-63
2023/05/01 09:30:56;;;;;;;4.45;2.65;;;23.20;34.70;;;;;;7641280;22;80670;-66
2023/05/01 09:33:57;;;;;;;5.97;2.92;;;23.20;34.50;;;;;;7641440;22;80164;-67
2023/05/01 09:36:57;;;;;;;8.50;3.08;;;23.20;34.60;;;;;;7641486;22;79987;-66
2023/05/01 09:39:58;;;;;;;4.55;2.47;;;23.20;34.60;;;;;;7641335;22;80339;-69
2023/05/01 09:42:58;;;;;;;3.22;2.00;;;23.20;33.90;;;;;;7638491;22;80986;-67
2023/05/01 09:45:59;;;;;;;5.65;2.42;;;23.10;34.10;;;;;;7641838;22;80378;-67
2023/05/01 09:48:59;;;;;;;7.22;2.55;;;23.20;34.30;;;;;;7641090;22;80342;-69
2023/05/01 09:52:00;;;;;;;6.80;2.85;;;23.20;34.20;;;;;;7642385;22;80722;-69
2023/05/01 09:55:00;;;;;;;6.72;2.42;;;23.30;34.30;;;;;;7641377;22;80416;-72
2023/05/01 09:58:01;;;;;;;6.03;2.47;;;23.10;33.50;;;;;;7638478;22;80531;-67
2023/05/01 10:01:02;;;;;;;5.82;2.10;;;23.20;34.00;;;;;;7641259;22;80742;-66
2023/05/01 10:04:02;;;;;;;4.53;2.22;;;23.30;33.90;;;;;;7641306;22;80379;-67
2023/05/01 10:07:03;;;;;;;5.28;2.50;;;23.30;33.90;;;;;;7643708;22;80403;-66
2023/05/01 10:10:03;;;;;;;3.95;2.63;;;23.40;33.80;;;;;;7640113;22;81518;-67
2023/05/01 10:13:04;;;;;;;4.43;2.53;;;23.30;33.80;;;;;;7643707;22;80571;-66
2023/05/01 10:16:06;;;;;;;6.45;2.35;;;23.40;33.90;;;;;;7642580;22;80850;-66
2023/05/01 10:19:08;;;;;;;8.18;2.55;;;23.40;33.70;;;;;;7642593;22;80519;-64
2023/05/01 10:22:09;;;;;;;4.93;2.40;;;23.30;33.40;;;;;;7643296;22;80401;-68
2023/05/01 10:25:12;;;;;;;7.88;3.05;;;23.30;33.80;;;;;;7640406;22;80299;-68
2023/05/01 10:28:13;;;;;;;5.82;2.50;;;23.40;33.70;;;;;;7643521;22;80234;-72
2023/05/01 10:31:13;;;;;;;5.72;2.92;;;23.50;33.90;;;;;;7643246;22;80426;-68
2023/05/01 10:34:14;;;;;;;3.30;2.25;;;23.50;33.70;;;;;;7643178;22;80691;-68
2023/05/01 10:37:14;;;;;;;4.30;2.35;;;23.50;33.90;;;;;;7643201;22;80077;-69
2023/05/01 10:40:15;;;;;;;5.47;2.53;;;23.60;34.20;;;;;;7639445;22;80380;-70
2023/05/01 10:43:16;;;;;;;8.82;2.38;;;23.60;34.00;;;;;;7643236;22;81098;-67
2023/05/01 10:46:17;;;;;;;4.40;2.63;;;23.60;33.80;;;;;;7644020;22;80589;-69
2023/05/01 10:49:18;;;;;;;3.72;2.30;;;23.60;33.50;;;;;;7643546;22;81218;-70
2023/05/01 10:52:19;;;;;;;6.10;2.60;;;23.60;33.90;;;;;;7643770;22;81351;-69
2023/05/01 10:55:19;;;;;;;4.75;2.90;;;23.60;33.70;;;;;;7640011;22;80288;-71
2023/05/01 10:58:20;;;;;;;4.00;2.38;;;23.60;33.60;;;;;;7643479;22;80971;-70
2023/05/01 11:01:20;;;;;;;5.13;2.40;;;23.60;33.80;;;;;;7642645;22;80277;-69
2023/05/01 11:04:21;;;;;;;4.50;2.33;;;23.60;33.60;;;;;;7616257;22;81293;-68
2023/05/01 11:07:21;;;;;;;5.53;2.35;;;23.60;33.40;;;;;;7643430;22;80980;-68
2023/05/01 11:10:22;;;;;;;4.28;2.83;;;23.60;33.10;;;;;;7639354;22;80906;-68
2023/05/01 11:13:22;;;;;;;4.70;2.40;;;23.60;33.40;;;;;;7643394;22;80025;-67
2023/05/01 11:16:23;;;;;;;4.93;2.50;;;23.60;32.50;;;;;;7642291;22;80397;-69
2023/05/01 11:19:23;;;;;;;5.97;2.20;;;23.60;32.80;;;;;;7642838;22;81128;-71
2023/05/01 11:22:24;;;;;;;5.93;2.28;;;23.60;32.90;;;;;;7639542;22;80664;-70
2023/05/01 11:25:26;;;;;;;5.38;2.60;;;23.60;32.90;;;;;;7642660;22;80347;-71
2023/05/01 11:28:26;;;;;;;5.32;2.60;;;23.60;33.20;;;;;;7643744;22;80813;-66
2023/05/01 11:31:27;;;;;;;6.15;2.83;;;23.60;33.00;;;;;;7641130;22;81438;-71
2023/05/01 11:34:28;;;;;;;7.72;2.72;;;23.70;33.30;;;;;;7643297;22;81092;-71
2023/05/01 11:37:28;;;;;;;12.60;3.30;;;23.70;34.10;;;;;;7640655;22;80979;-72
2023/05/01 11:40:29;;;;;;;6.10;3.05;;;23.70;33.10;;;;;;7642644;22;80844;-69
2023/05/01 11:43:30;;;;;;;8.95;4.13;;;23.70;33.10;;;;;;7644022;22;80253;-66
2023/05/01 11:46:31;;;;;;;5.60;3.35;;;23.70;33.10;;;;;;7644909;22;80248;-63
2023/05/01 11:49:31;;;;;;;6.05;3.58;;;23.60;32.40;;;;;;7645088;22;81310;-66
2023/05/01 11:52:32;;;;;;;7.82;3.40;;;23.70;32.40;;;;;;7638711;22;80132;-64
2023/05/01 11:55:32;;;;;;;4.85;3.40;;;23.70;32.70;;;;;;7644845;22;80355;-67
2023/05/01 11:58:33;;;;;;;7.03;3.28;;;23.70;33.20;;;;;;7644438;22;80266;-65
2023/05/01 12:01:34;;;;;;;8.70;3.10;;;23.70;33.50;;;;;;7644698;22;81544;-69
2023/05/01 12:04:35;;;;;;;4.85;2.85;;;23.70;33.50;;;;;;7644490;22;80414;-66
2023/05/01 12:07:36;;;;;;;5.63;3.15;;;23.60;33.10;;;;;;7640746;22;80464;-66
2023/05/01 12:10:36;;;;;;;6.53;3.08;;;23.70;33.50;;;;;;7644445;22;80692;-67
2023/05/01 12:13:37;;;;;;;5.88;2.67;;;23.70;33.00;;;;;;7644717;22;80421;-68
2023/05/01 12:16:39;;;;;;;4.47;2.92;;;23.70;33.10;;;;;;7641547;22;80258;-66
2023/05/01 12:19:40;;;;;;;5.50;3.15;;;23.80;33.30;;;;;;7641362;22;80356;-63
2023/05/01 12:22:41;;;;;;;5.32;2.90;;;23.80;33.40;;;;;;7638959;22;80509;-66
2023/05/01 12:25:41;;;;;;;5.30;2.78;;;23.80;33.40;;;;;;7642445;22;80790;-67
2023/05/01 12:28:42;;;;;;;5.38;3.08;;;23.80;33.70;;;;;;7644162;22;81181;-68
2023/05/01 12:31:42;;;;;;;5.03;2.72;;;23.90;33.30;;;;;;7644113;22;80111;-66
2023/05/01 12:34:43;;;;;;;6.80;2.92;;;23.90;32.90;;;;;;7645484;22;80489;-67
2023/05/01 12:37:43;;;;;;;5.55;2.65;;;23.80;32.90;;;;;;7641077;22;80936;-63
2023/05/01 12:40:44;;;;;;;4.75;2.80;;;23.90;32.90;;;;;;7644559;22;80397;-68
2023/05/01 12:43:45;;;;;;;4.88;2.85;;;23.80;32.60;;;;;;7644335;22;79981;-69
2023/05/01 12:46:49;;;;;;;5.93;3.20;;;23.90;32.80;;;;;;7643832;22;80161;-68
2023/05/01 12:49:49;;;;;;;5.47;2.45;;;23.90;32.80;;;;;;7640233;22;80873;-68
2023/05/01 12:52:50;;;;;;;6.38;2.67;;;24.00;33.00;;;;;;7644295;22;80105;-67
2023/05/01 12:55:50;;;;;;;7.22;3.45;;;24.00;32.80;;;;;;7644035;22;80352;-67
2023/05/01 12:58:52;;;;;;;5.47;3.10;;;24.00;32.90;;;;;;7641407;22;80522;-67
2023/05/01 13:01:52;;;;;;;3.15;2.65;;;24.00;33.00;;;;;;7641639;22;80279;-63
2023/05/01 13:04:53;;;;;;;7.25;2.70;;;24.00;33.20;;;;;;7615346;22;82318;-66
2023/05/01 13:07:54;;;;;;;9.02;2.53;;;24.10;33.40;;;;;;7641369;22;81625;-66
2023/05/01 13:10:54;;;;;;;5.00;3.00;;;24.10;33.50;;;;;;7641186;22;80715;-68
2023/05/01 13:13:55;;;;;;;5.35;2.75;;;24.10;33.80;;;;;;7639827;22;81025;-64
2023/05/01 13:16:55;;;;;;;3.67;2.22;;;24.10;34.00;;;;;;7641156;22;80311;-64
2023/05/01 13:19:56;;;;;;;5.18;2.80;;;24.10;34.00;;;;;;7639103;22;80777;-62
2023/05/01 13:22:56;;;;;;;5.57;3.15;;;24.10;34.20;;;;;;7631833;22;80579;-63
2023/05/01 13:25:57;;;;;;;4.90;3.58;;;24.10;32.90;;;;;;7642983;22;80873;-63
2023/05/01 13:28:58;;;;;;;6.07;2.80;;;24.10;32.80;;;;;;7612890;22;81600;-63
2023/05/01 13:31:59;;;;;;;6.10;3.25;;;24.00;32.00;;;;;;7644630;22;80771;-64
2023/05/01 13:35:00;;;;;;;6.53;2.70;;;24.00;32.20;;;;;;7639708;22;81387;-65
2023/05/01 13:38:01;;;;;;;5.93;2.90;;;24.00;33.00;;;;;;7642731;22;80096;-62
2023/05/01 13:41:01;;;;;;;5.57;2.67;;;24.00;31.90;;;;;;7642623;22;80306;-63
2023/05/01 13:44:02;;;;;;;5.03;3.17;;;23.90;31.80;;;;;;7644287;22;80339;-64
2023/05/01 13:47:02;;;;;;;6.78;2.97;;;23.90;31.70;;;;;;7645596;22;80112;-59
2023/05/01 13:50:03;;;;;;;3.90;2.65;;;23.90;31.70;;;;;;7640947;22;80594;-64
2023/05/01 13:53:04;;;;;;;3.70;2.53;;;23.90;31.80;;;;;;7644877;22;80002;-65
2023/05/01 13:56:04;;;;;;;5.22;3.55;;;23.90;32.20;;;;;;7643985;22;80410;-64
2023/05/01 13:59:05;;;;;;;7.47;2.78;;;23.90;31.70;;;;;;7645841;22;80333;-65
2023/05/01 14:02:05;;;;;;;5.55;3.20;;;23.90;31.30;;;;;;7618344;22;82371;-62
2023/05/01 14:05:08;;;;;;;5.68;2.45;;;23.90;31.60;;;;;;7641871;22;81798;-61
2023/05/01 14:08:09;;;;;;;7.88;3.15;;;23.90;31.90;;;;;;7645688;22;80447;-63
2023/05/01 14:11:13;;;;;;;5.50;2.75;;;24.00;32.20;;;;;;7645480;22;80629;-66
2023/05/01 14:14:13;;;;;;;3.88;2.47;;;24.00;32.10;;;;;;7617631;22;84805;-67
2023/05/01 14:17:14;;;;;;;6.13;2.70;;;24.00;32.10;;;;;;7644856;22;80651;-70
2023/05/01 14:20:15;;;;;;;4.18;2.58;;;23.90;32.20;;;;;;7642459;22;81525;-72
2023/05/01 14:23:15;;;;;;;4.70;2.30;;;24.00;32.60;;;;;;7645471;22;80638;-73
2023/05/01 14:26:16;;;;;;;3.67;2.33;;;24.00;32.30;;;;;;7644851;22;80318;-69
2023/05/01 14:29:16;;;;;;;3.78;2.50;;;24.00;31.70;;;;;;7645177;22;80953;-73
2023/05/01 14:32:17;;;;;;;5.03;2.20;;;23.90;32.20;;;;;;7645116;22;80397;-71
2023/05/01 14:35:17;;;;;;;3.45;2.25;;;24.00;31.80;;;;;;7641536;22;80325;-71
2023/05/01 14:38:18;;;;;;;6.97;2.97;;;24.00;31.80;;;;;;7645031;22;80318;-71
2023/05/01 14:41:19;;;;;;;5.40;2.80;;;23.90;31.40;;;;;;7645562;22;80773;-69
2023/05/01 14:44:20;;;;;;;4.97;2.22;;;23.90;31.40;;;;;;7645337;22;80521;-69
2023/05/01 14:47:20;;;;;;;5.18;2.60;;;23.90;31.70;;;;;;7638649;22;81666;-71
2023/05/01 14:50:21;;;;;;;5.43;2.60;;;24.00;31.90;;;;;;7643768;22;80945;-72
2023/05/01 14:53:22;;;;;;;5.50;2.30;;;23.90;32.20;;;;;;7644323;22;80615;-69
2023/05/01 14:56:22;;;;;;;3.28;2.42;;;23.80;31.70;;;;;;7645326;22;80724;-70
2023/05/01 14:59:23;;;;;;;4.43;3.17;;;23.80;32.00;;;;;;7644779;22;80143;-71
2023/05/01 15:02:23;;;;;;;5.50;2.45;;;23.80;31.70;;;;;;7639709;22;79891;-70
2023/05/01 15:05:25;;;;;;;2.70;2.20;;;23.80;32.00;;;;;;7644405;22;81759;-75
2023/05/01 15:08:25;;;;;;;4.35;2.53;;;23.90;32.30;;;;;;7645706;22;80322;-72
2023/05/01 15:11:26;;;;;;;3.50;2.30;;;23.90;32.30;;;;;;7644540;22;80333;-74
2023/05/01 15:14:26;;;;;;;4.45;2.70;;;23.80;32.10;;;;;;7645177;22;80539;-66
2023/05/01 15:17:27;;;;;;;8.18;2.58;;;23.80;31.90;;;;;;7614367;22;81908;-70
2023/05/01 15:20:28;;;;;;;4.15;2.45;;;23.80;31.90;;;;;;7644661;22;86466;-70
2023/05/01 15:23:30;;;;;;;7.95;3.00;;;23.80;31.90;;;;;;7619348;22;79975;-70
2023/05/01 15:26:30;;;;;;;3.85;2.60;;;23.70;32.00;;;;;;7645426;22;80521;-74
2023/05/01 15:29:31;;;;;;;5.05;2.67;;;23.70;32.10;;;;;;7618562;22;80501;-73
2023/05/01 15:32:31;;;;;;;3.22;2.38;;;23.70;32.20;;;;;;7640801;22;80159;-72
2023/05/01 15:35:32;;;;;;;5.05;2.17;;;23.80;32.60;;;;;;7645469;22;80291;-73
2023/05/01 15:38:33;;;;;;;5.70;2.47;;;23.70;32.50;;;;;;7644249;22;83929;-72